sensor_id;sensor_type;location;lat;lon;timestamp;P1;durP1;ratioP1;P2;durP2;ratioP2
417;SDS011;49;48.530;9.200;2023-04-16T00:00:45;5.20;;;4.57;;
417;SDS011;49;48.530;9.200;2023-04-16T00:03:22;5.97;;;5.67;;
417;SDS011;49;48.530;9.200;2023-04-16T00:05:57;6.50;;;5.63;;
417;SDS011;49;48.530;9.200;2023-04-16T00:08:28;5.63;;;5.40;;
417;SDS011;49;48.530;9.200;2023-04-16T00:11:01;6.37;;;5.43;;
417;SDS011;49;48.530;9.200;2023-04-16T00:13:45;6.33;;;5.53;;
417;SDS011;49;48.530;9.200;2023-04-16T00:16:18;6.63;;;5.63;;
417;SDS011;49;48.530;9.200;2023-04-16T00:18:48;5.87;;;5.40;;
417;SDS011;49;48.530;9.200;2023-04-16T00:21:20;6.63;;;5.80;;
417;SDS011;49;48.530;9.200;2023-04-16T00:24:00;8.30;;;6.30;;
417;SDS011;49;48.530;9.200;2023-04-16T00:26:31;6.07;;;5.43;;
417;SDS011;49;48.530;9.200;2023-04-16T00:29:14;7.70;;;5.70;;
417;SDS011;49;48.530;9.200;2023-04-16T00:31:55;6.77;;;6.23;;
417;SDS011;49;48.530;9.200;2023-04-16T00:34:32;5.90;;;5.60;;
417;SDS011;49;48.530;9.200;2023-04-16T00:37:05;7.00;;;5.70;;
417;SDS011;49;48.530;9.200;2023-04-16T00:39:35;6.47;;;5.80;;
417;SDS011;49;48.530;9.200;2023-04-16T00:42:16;6.47;;;6.03;;
417;SDS011;49;48.530;9.200;2023-04-16T00:45:03;7.93;;;6.10;;
417;SDS011;49;48.530;9.200;2023-04-16T00:47:42;6.30;;;5.43;;
417;SDS011;49;48.530;9.200;2023-04-16T00:50:16;7.03;;;6.13;;
417;SDS011;49;48.530;9.200;2023-04-16T00:53:06;6.40;;;5.50;;
417;SDS011;49;48.530;9.200;2023-04-16T00:55:36;6.60;;;5.80;;
417;SDS011;49;48.530;9.200;2023-04-16T00:58:14;7.40;;;6.10;;
417;SDS011;49;48.530;9.200;2023-04-16T01:00:45;7.83;;;6.93;;
417;SDS011;49;48.530;9.200;2023-04-16T01:03:15;9.23;;;6.97;;
417;SDS011;49;48.530;9.200;2023-04-16T01:05:46;7.43;;;6.60;;
417;SDS011;49;48.530;9.200;2023-04-16T01:08:26;10.13;;;7.20;;
417;SDS011;49;48.530;9.200;2023-04-16T01:11:04;8.47;;;6.90;;
417;SDS011;49;48.530;9.200;2023-04-16T01:13:36;8.33;;;7.13;;
417;SDS011;49;48.530;9.200;2023-04-16T01:16:06;7.50;;;6.67;;
417;SDS011;49;48.530;9.200;2023-04-16T01:18:36;6.60;;;5.50;;
417;SDS011;49;48.530;9.200;2023-04-16T01:21:11;8.73;;;7.13;;
417;SDS011;49;48.530;9.200;2023-04-16T01:23:41;9.60;;;7.50;;
417;SDS011;49;48.530;9.200;2023-04-16T01:26:12;8.70;;;7.13;;
417;SDS011;49;48.530;9.200;2023-04-16T01:28:42;7.43;;;6.80;;
417;SDS011;49;48.530;9.200;2023-04-16T01:31:14;9.77;;;7.77;;
417;SDS011;49;48.530;9.200;2023-04-16T01:33:45;8.03;;;7.27;;
417;SDS011;49;48.530;9.200;2023-04-16T01:36:25;8.93;;;6.87;;
417;SDS011;49;48.530;9.200;2023-04-16T01:38:54;7.60;;;7.00;;
417;SDS011;49;48.530;9.200;2023-04-16T01:41:30;8.23;;;7.50;;
417;SDS011;49;48.530;9.200;2023-04-16T01:44:03;8.00;;;6.60;;
417;SDS011;49;48.530;9.200;2023-04-16T01:46:32;8.33;;;6.60;;
417;SDS011;49;48.530;9.200;2023-04-16T01:49:13;10.17;;;6.70;;
417;SDS011;49;48.530;9.200;2023-04-16T01:51:51;7.90;;;6.67;;
417;SDS011;49;48.530;9.200;2023-04-16T01:54:21;7.90;;;6.60;;
417;SDS011;49;48.530;9.200;2023-04-16T01:56:58;7.73;;;6.60;;
417;SDS011;49;48.530;9.200;2023-04-16T01:59:31;10.40;;;6.00;;
417;SDS011;49;48.530;9.200;2023-04-16T02:02:01;7.20;;;6.13;;
417;SDS011;49;48.530;9.200;2023-04-16T02:04:36;7.53;;;6.20;;
417;SDS011;49;48.530;9.200;2023-04-16T02:07:07;6.83;;;6.23;;
417;SDS011;49;48.530;9.200;2023-04-16T02:09:40;8.63;;;7.20;;
417;SDS011;49;48.530;9.200;2023-04-16T02:12:14;9.37;;;7.57;;
417;SDS011;49;48.530;9.200;2023-04-16T02:14:56;9.33;;;7.80;;
417;SDS011;49;48.530;9.200;2023-04-16T02:17:38;8.90;;;7.77;;
417;SDS011;49;48.530;9.200;2023-04-16T02:20:10;8.03;;;7.07;;
417;SDS011;49;48.530;9.200;2023-04-16T02:22:53;7.63;;;6.73;;
417;SDS011;49;48.530;9.200;2023-04-16T02:25:24;8.57;;;7.00;;
417;SDS011;49;48.530;9.200;2023-04-16T02:27:57;7.10;;;6.37;;
417;SDS011;49;48.530;9.200;2023-04-16T02:30:42;7.53;;;6.73;;
417;SDS011;49;48.530;9.200;2023-04-16T02:33:19;7.20;;;6.30;;
417;SDS011;49;48.530;9.200;2023-04-16T02:36:10;6.77;;;5.93;;
417;SDS011;49;48.530;9.200;2023-04-16T02:38:44;7.33;;;5.83;;
417;SDS011;49;48.530;9.200;2023-04-16T02:41:13;9.00;;;6.20;;
417;SDS011;49;48.530;9.200;2023-04-16T02:43:40;7.00;;;5.97;;
417;SDS011;49;48.530;9.200;2023-04-16T02:46:17;7.60;;;6.50;;
417;SDS011;49;48.530;9.200;2023-04-16T02:48:50;8.30;;;6.03;;
417;SDS011;49;48.530;9.200;2023-04-16T02:51:20;9.23;;;6.33;;
417;SDS011;49;48.530;9.200;2023-04-16T02:53:48;5.83;;;4.87;;
417;SDS011;49;48.530;9.200;2023-04-16T02:56:22;10.83;;;5.97;;
417;SDS011;49;48.530;9.200;2023-04-16T02:58:51;7.13;;;5.97;;
417;SDS011;49;48.530;9.200;2023-04-16T03:01:25;8.73;;;6.93;;
417;SDS011;49;48.530;9.200;2023-04-16T03:04:02;6.30;;;5.23;;
417;SDS011;49;48.530;9.200;2023-04-16T03:06:32;5.63;;;5.27;;
417;SDS011;49;48.530;9.200;2023-04-16T03:09:02;6.40;;;5.50;;
417;SDS011;49;48.530;9.200;2023-04-16T03:11:33;7.13;;;4.93;;
417;SDS011;49;48.530;9.200;2023-04-16T03:14:03;6.40;;;5.37;;
417;SDS011;49;48.530;9.200;2023-04-16T03:16:31;6.07;;;5.03;;
417;SDS011;49;48.530;9.200;2023-04-16T03:19:01;5.20;;;4.80;;
417;SDS011;49;48.530;9.200;2023-04-16T03:21:31;5.60;;;5.07;;
417;SDS011;49;48.530;9.200;2023-04-16T03:24:07;5.00;;;4.70;;
417;SDS011;49;48.530;9.200;2023-04-16T03:26:53;6.03;;;4.37;;
417;SDS011;49;48.530;9.200;2023-04-16T03:29:26;4.50;;;4.07;;
417;SDS011;49;48.530;9.200;2023-04-16T03:31:58;4.67;;;4.20;;
417;SDS011;49;48.530;9.200;2023-04-16T03:34:32;6.90;;;4.60;;
417;SDS011;49;48.530;9.200;2023-04-16T03:37:05;4.93;;;4.43;;
417;SDS011;49;48.530;9.200;2023-04-16T03:39:39;5.00;;;4.53;;
417;SDS011;49;48.530;9.200;2023-04-16T03:42:11;10.30;;;4.70;;
417;SDS011;49;48.530;9.200;2023-04-16T03:44:48;6.23;;;4.57;;
417;SDS011;49;48.530;9.200;2023-04-16T03:47:23;6.37;;;4.17;;
417;SDS011;49;48.530;9.200;2023-04-16T03:49:59;5.13;;;4.23;;
417;SDS011;49;48.530;9.200;2023-04-16T03:52:37;7.17;;;4.50;;
417;SDS011;49;48.530;9.200;2023-04-16T03:55:12;4.90;;;4.30;;
417;SDS011;49;48.530;9.200;2023-04-16T03:57:44;6.40;;;4.87;;
417;SDS011;49;48.530;9.200;2023-04-16T04:00:17;6.50;;;5.20;;
417;SDS011;49;48.530;9.200;2023-04-16T04:02:49;7.93;;;5.70;;
417;SDS011;49;48.530;9.200;2023-04-16T04:05:24;6.80;;;5.00;;
417;SDS011;49;48.530;9.200;2023-04-16T04:07:51;7.03;;;4.90;;
417;SDS011;49;48.530;9.200;2023-04-16T04:10:24;6.40;;;5.70;;
417;SDS011;49;48.530;9.200;2023-04-16T04:12:56;6.07;;;5.10;;
417;SDS011;49;48.530;9.200;2023-04-16T04:15:26;5.73;;;5.03;;
417;SDS011;49;48.530;9.200;2023-04-16T04:17:54;6.80;;;5.93;;
417;SDS011;49;48.530;9.200;2023-04-16T04:20:37;12.70;;;7.10;;
417;SDS011;49;48.530;9.200;2023-04-16T04:23:09;7.70;;;6.80;;
417;SDS011;49;48.530;9.200;2023-04-16T04:25:54;8.53;;;6.50;;
417;SDS011;49;48.530;9.200;2023-04-16T04:28:31;7.60;;;6.10;;
417;SDS011;49;48.530;9.200;2023-04-16T04:31:08;23.53;;;11.50;;
417;SDS011;49;48.530;9.200;2023-04-16T04:33:40;12.50;;;7.33;;
417;SDS011;49;48.530;9.200;2023-04-16T04:36:09;9.43;;;7.17;;
417;SDS011;49;48.530;9.200;2023-04-16T04:38:39;8.50;;;6.53;;
417;SDS011;49;48.530;9.200;2023-04-16T04:41:09;8.50;;;6.63;;
417;SDS011;49;48.530;9.200;2023-04-16T04:43:52;8.20;;;6.80;;
417;SDS011;49;48.530;9.200;2023-04-16T04:46:28;7.03;;;5.70;;
417;SDS011;49;48.530;9.200;2023-04-16T04:49:06;7.33;;;6.00;;
417;SDS011;49;48.530;9.200;2023-04-16T04:51:43;14.50;;;8.03;;
417;SDS011;49;48.530;9.200;2023-04-16T04:54:19;10.60;;;7.50;;
417;SDS011;49;48.530;9.200;2023-04-16T04:56:53;10.53;;;7.40;;
417;SDS011;49;48.530;9.200;2023-04-16T04:59:30;10.67;;;8.00;;
417;SDS011;49;48.530;9.200;2023-04-16T05:02:03;8.67;;;6.57;;
417;SDS011;49;48.530;9.200;2023-04-16T05:04:42;9.93;;;7.67;;
417;SDS011;49;48.530;9.200;2023-04-16T05:07:15;9.43;;;7.00;;
417;SDS011;49;48.530;9.200;2023-04-16T05:09:50;11.83;;;7.50;;
417;SDS011;49;48.530;9.200;2023-04-16T05:12:22;8.17;;;6.73;;
417;SDS011;49;48.530;9.200;2023-04-16T05:14:57;11.47;;;7.53;;
417;SDS011;49;48.530;9.200;2023-04-16T05:17:29;12.33;;;9.40;;
417;SDS011;49;48.530;9.200;2023-04-16T05:19:59;7.97;;;6.50;;
417;SDS011;49;48.530;9.200;2023-04-16T05:22:33;9.27;;;7.80;;
417;SDS011;49;48.530;9.200;2023-04-16T05:25:07;10.40;;;7.57;;
417;SDS011;49;48.530;9.200;2023-04-16T05:27:38;10.43;;;7.23;;
417;SDS011;49;48.530;9.200;2023-04-16T05:30:14;8.70;;;6.70;;
417;SDS011;49;48.530;9.200;2023-04-16T05:32:45;12.20;;;7.53;;
417;SDS011;49;48.530;9.200;2023-04-16T05:35:17;8.80;;;6.37;;
417;SDS011;49;48.530;9.200;2023-04-16T05:37:46;6.40;;;5.53;;
417;SDS011;49;48.530;9.200;2023-04-16T05:40:25;8.40;;;6.50;;
417;SDS011;49;48.530;9.200;2023-04-16T05:43:01;9.07;;;6.70;;
417;SDS011;49;48.530;9.200;2023-04-16T05:45:30;9.17;;;6.87;;
417;SDS011;49;48.530;9.200;2023-04-16T05:48:06;9.60;;;7.17;;
417;SDS011;49;48.530;9.200;2023-04-16T05:50:47;8.07;;;5.90;;
417;SDS011;49;48.530;9.200;2023-04-16T05:53:20;11.57;;;7.60;;
417;SDS011;49;48.530;9.200;2023-04-16T05:55:56;7.97;;;6.27;;
417;SDS011;49;48.530;9.200;2023-04-16T05:58:34;8.10;;;6.30;;
417;SDS011;49;48.530;9.200;2023-04-16T06:01:07;8.40;;;6.00;;
417;SDS011;49;48.530;9.200;2023-04-16T06:03:45;8.10;;;6.97;;
417;SDS011;49;48.530;9.200;2023-04-16T06:06:23;7.97;;;6.00;;
417;SDS011;49;48.530;9.200;2023-04-16T06:08:53;10.20;;;7.60;;
417;SDS011;49;48.530;9.200;2023-04-16T06:11:39;8.80;;;6.93;;
417;SDS011;49;48.530;9.200;2023-04-16T06:14:09;10.83;;;7.70;;
417;SDS011;49;48.530;9.200;2023-04-16T06:16:42;10.87;;;8.10;;
417;SDS011;49;48.530;9.200;2023-04-16T06:19:22;11.70;;;8.13;;
417;SDS011;49;48.530;9.200;2023-04-16T06:21:50;13.10;;;8.80;;
417;SDS011;49;48.530;9.200;2023-04-16T06:24:23;11.67;;;9.07;;
417;SDS011;49;48.530;9.200;2023-04-16T06:26:50;18.17;;;11.30;;
417;SDS011;49;48.530;9.200;2023-04-16T06:29:28;21.53;;;13.60;;
417;SDS011;49;48.530;9.200;2023-04-16T06:32:01;19.87;;;12.50;;
417;SDS011;49;48.530;9.200;2023-04-16T06:34:32;19.70;;;12.20;;
417;SDS011;49;48.530;9.200;2023-04-16T06:37:06;21.57;;;13.57;;
417;SDS011;49;48.530;9.200;2023-04-16T06:39:41;19.37;;;13.20;;
417;SDS011;49;48.530;9.200;2023-04-16T06:42:08;23.83;;;14.93;;
417;SDS011;49;48.530;9.200;2023-04-16T06:44:38;25.00;;;15.47;;
417;SDS011;49;48.530;9.200;2023-04-16T06:47:05;24.00;;;15.73;;
417;SDS011;49;48.530;9.200;2023-04-16T06:49:33;30.40;;;17.40;;
417;SDS011;49;48.530;9.200;2023-04-16T06:52:04;24.90;;;15.33;;
417;SDS011;49;48.530;9.200;2023-04-16T06:54:33;29.30;;;17.30;;
417;SDS011;49;48.530;9.200;2023-04-16T06:57:03;27.33;;;17.43;;
417;SDS011;49;48.530;9.200;2023-04-16T06:59:32;24.97;;;16.20;;
417;SDS011;49;48.530;9.200;2023-04-16T07:02:03;24.50;;;15.83;;
417;SDS011;49;48.530;9.200;2023-04-16T07:04:32;23.67;;;15.80;;
417;SDS011;49;48.530;9.200;2023-04-16T07:06:59;27.50;;;16.93;;
417;SDS011;49;48.530;9.200;2023-04-16T07:09:32;22.33;;;15.00;;
417;SDS011;49;48.530;9.200;2023-04-16T07:11:59;27.10;;;16.60;;
417;SDS011;49;48.530;9.200;2023-04-16T07:14:28;23.60;;;15.67;;
417;SDS011;49;48.530;9.200;2023-04-16T07:16:55;24.97;;;15.17;;
417;SDS011;49;48.530;9.200;2023-04-16T07:19:29;20.57;;;15.17;;
417;SDS011;49;48.530;9.200;2023-04-16T07:22:01;27.03;;;17.30;;
417;SDS011;49;48.530;9.200;2023-04-16T07:24:29;21.87;;;14.53;;
417;SDS011;49;48.530;9.200;2023-04-16T07:27:04;25.47;;;17.10;;
417;SDS011;49;48.530;9.200;2023-04-16T07:29:35;24.77;;;14.53;;
417;SDS011;49;48.530;9.200;2023-04-16T07:32:07;26.60;;;15.37;;
417;SDS011;49;48.530;9.200;2023-04-16T07:34:36;23.27;;;14.23;;
417;SDS011;49;48.530;9.200;2023-04-16T07:37:07;32.40;;;17.97;;
417;SDS011;49;48.530;9.200;2023-04-16T07:39:37;23.33;;;15.60;;
417;SDS011;49;48.530;9.200;2023-04-16T07:42:14;26.83;;;17.93;;
417;SDS011;49;48.530;9.200;2023-04-16T07:44:48;31.73;;;18.57;;
417;SDS011;49;48.530;9.200;2023-04-16T07:47:15;32.30;;;20.00;;
417;SDS011;49;48.530;9.200;2023-04-16T07:49:43;29.50;;;18.33;;
417;SDS011;49;48.530;9.200;2023-04-16T07:52:10;33.23;;;19.37;;
417;SDS011;49;48.530;9.200;2023-04-16T07:54:44;30.30;;;21.10;;
417;SDS011;49;48.530;9.200;2023-04-16T07:57:14;26.90;;;18.73;;
417;SDS011;49;48.530;9.200;2023-04-16T07:59:42;28.00;;;19.77;;
417;SDS011;49;48.530;9.200;2023-04-16T08:02:10;27.63;;;17.93;;
417;SDS011;49;48.530;9.200;2023-04-16T08:04:40;34.43;;;20.13;;
417;SDS011;49;48.530;9.200;2023-04-16T08:07:27;27.80;;;18.97;;
417;SDS011;49;48.530;9.200;2023-04-16T08:09:56;27.23;;;18.23;;
417;SDS011;49;48.530;9.200;2023-04-16T08:12:23;33.10;;;20.37;;
417;SDS011;49;48.530;9.200;2023-04-16T08:14:50;27.87;;;18.40;;
417;SDS011;49;48.530;9.200;2023-04-16T08:17:18;32.33;;;19.80;;
417;SDS011;49;48.530;9.200;2023-04-16T08:19:49;29.30;;;20.33;;
417;SDS011;49;48.530;9.200;2023-04-16T08:22:19;32.37;;;19.37;;
417;SDS011;49;48.530;9.200;2023-04-16T08:24:50;30.33;;;19.07;;
417;SDS011;49;48.530;9.200;2023-04-16T08:27:20;30.77;;;20.23;;
417;SDS011;49;48.530;9.200;2023-04-16T08:29:47;28.70;;;19.00;;
417;SDS011;49;48.530;9.200;2023-04-16T08:32:23;28.40;;;18.40;;
417;SDS011;49;48.530;9.200;2023-04-16T08:35:04;34.40;;;20.13;;
417;SDS011;49;48.530;9.200;2023-04-16T08:37:36;33.13;;;19.73;;
417;SDS011;49;48.530;9.200;2023-04-16T08:40:05;26.17;;;17.43;;
417;SDS011;49;48.530;9.200;2023-04-16T08:42:39;26.87;;;18.50;;
417;SDS011;49;48.530;9.200;2023-04-16T08:45:12;22.40;;;15.90;;
417;SDS011;49;48.530;9.200;2023-04-16T08:47:40;28.53;;;17.70;;
417;SDS011;49;48.530;9.200;2023-04-16T08:53:03;27.53;;;19.17;;
417;SDS011;49;48.530;9.200;2023-04-16T08:55:34;31.47;;;19.30;;
417;SDS011;49;48.530;9.200;2023-04-16T08:58:07;25.30;;;18.13;;
417;SDS011;49;48.530;9.200;2023-04-16T09:00:43;29.93;;;18.67;;
417;SDS011;49;48.530;9.200;2023-04-16T09:03:15;22.80;;;17.17;;
417;SDS011;49;48.530;9.200;2023-04-16T09:05:55;27.80;;;18.77;;
417;SDS011;49;48.530;9.200;2023-04-16T09:08:28;34.03;;;20.13;;
417;SDS011;49;48.530;9.200;2023-04-16T09:10:56;32.53;;;20.40;;
417;SDS011;49;48.530;9.200;2023-04-16T09:13:36;26.87;;;17.53;;
417;SDS011;49;48.530;9.200;2023-04-16T09:16:04;27.80;;;19.30;;
417;SDS011;49;48.530;9.200;2023-04-16T09:18:37;30.20;;;20.23;;
417;SDS011;49;48.530;9.200;2023-04-16T09:21:11;26.73;;;17.83;;
417;SDS011;49;48.530;9.200;2023-04-16T09:23:41;21.83;;;16.60;;
417;SDS011;49;48.530;9.200;2023-04-16T09:26:11;32.90;;;18.50;;
417;SDS011;49;48.530;9.200;2023-04-16T09:28:42;22.93;;;16.63;;
417;SDS011;49;48.530;9.200;2023-04-16T09:31:12;26.37;;;16.73;;
417;SDS011;49;48.530;9.200;2023-04-16T09:33:43;21.10;;;15.87;;
417;SDS011;49;48.530;9.200;2023-04-16T09:36:31;23.77;;;15.80;;
417;SDS011;49;48.530;9.200;2023-04-16T09:39:00;23.30;;;16.33;;
417;SDS011;49;48.530;9.200;2023-04-16T09:41:28;27.80;;;17.20;;
417;SDS011;49;48.530;9.200;2023-04-16T09:44:09;24.43;;;15.90;;
417;SDS011;49;48.530;9.200;2023-04-16T09:46:42;19.73;;;14.27;;
417;SDS011;49;48.530;9.200;2023-04-16T09:49:11;26.23;;;16.00;;
417;SDS011;49;48.530;9.200;2023-04-16T09:51:45;21.77;;;14.83;;
417;SDS011;49;48.530;9.200;2023-04-16T09:54:33;22.63;;;14.87;;
417;SDS011;49;48.530;9.200;2023-04-16T09:57:06;18.07;;;12.90;;
417;SDS011;49;48.530;9.200;2023-04-16T09:59:38;19.23;;;13.37;;
417;SDS011;49;48.530;9.200;2023-04-16T10:02:16;20.07;;;13.63;;
417;SDS011;49;48.530;9.200;2023-04-16T10:04:57;17.97;;;13.03;;
417;SDS011;49;48.530;9.200;2023-04-16T10:07:45;20.73;;;12.90;;
417;SDS011;49;48.530;9.200;2023-04-16T10:10:21;16.10;;;11.70;;
417;SDS011;49;48.530;9.200;2023-04-16T10:12:55;21.50;;;14.37;;
417;SDS011;49;48.530;9.200;2023-04-16T10:15:44;19.30;;;13.40;;
417;SDS011;49;48.530;9.200;2023-04-16T10:18:23;19.27;;;12.10;;
417;SDS011;49;48.530;9.200;2023-04-16T10:20:53;19.43;;;13.53;;
417;SDS011;49;48.530;9.200;2023-04-16T10:23:26;21.50;;;12.27;;
417;SDS011;49;48.530;9.200;2023-04-16T10:26:00;20.17;;;13.50;;
417;SDS011;49;48.530;9.200;2023-04-16T10:28:29;21.73;;;14.30;;
417;SDS011;49;48.530;9.200;2023-04-16T10:31:00;19.33;;;13.30;;
417;SDS011;49;48.530;9.200;2023-04-16T10:33:32;19.27;;;13.30;;
417;SDS011;49;48.530;9.200;2023-04-16T10:36:12;18.47;;;13.13;;
417;SDS011;49;48.530;9.200;2023-04-16T10:38:57;20.70;;;14.53;;
417;SDS011;49;48.530;9.200;2023-04-16T10:41:25;22.50;;;16.20;;
417;SDS011;49;48.530;9.200;2023-04-16T10:44:02;23.00;;;14.27;;
417;SDS011;49;48.530;9.200;2023-04-16T10:46:35;22.23;;;14.90;;
417;SDS011;49;48.530;9.200;2023-04-16T10:49:11;29.73;;;15.17;;
417;SDS011;49;48.530;9.200;2023-04-16T10:51:40;21.33;;;15.10;;
417;SDS011;49;48.530;9.200;2023-04-16T10:54:25;28.13;;;18.07;;
417;SDS011;49;48.530;9.200;2023-04-16T10:57:11;31.43;;;16.20;;
417;SDS011;49;48.530;9.200;2023-04-16T10:59:51;23.30;;;15.90;;
417;SDS011;49;48.530;9.200;2023-04-16T11:02:29;24.13;;;15.17;;
417;SDS011;49;48.530;9.200;2023-04-16T11:05:04;25.70;;;16.03;;
417;SDS011;49;48.530;9.200;2023-04-16T11:07:41;24.33;;;15.80;;
417;SDS011;49;48.530;9.200;2023-04-16T11:10:22;26.30;;;16.43;;
417;SDS011;49;48.530;9.200;2023-04-16T11:13:10;26.20;;;16.10;;
417;SDS011;49;48.530;9.200;2023-04-16T11:16:11;27.30;;;16.77;;
417;SDS011;49;48.530;9.200;2023-04-16T11:18:44;27.70;;;17.20;;
417;SDS011;49;48.530;9.200;2023-04-16T11:21:21;23.40;;;15.90;;
417;SDS011;49;48.530;9.200;2023-04-16T11:24:02;37.03;;;17.60;;
417;SDS011;49;48.530;9.200;2023-04-16T11:26:41;35.60;;;18.00;;
417;SDS011;49;48.530;9.200;2023-04-16T11:29:14;26.47;;;16.70;;
417;SDS011;49;48.530;9.200;2023-04-16T11:31:52;27.30;;;17.40;;
417;SDS011;49;48.530;9.200;2023-04-16T11:34:31;29.60;;;16.80;;
417;SDS011;49;48.530;9.200;2023-04-16T11:37:14;25.20;;;15.47;;
417;SDS011;49;48.530;9.200;2023-04-16T11:39:55;26.10;;;15.80;;
417;SDS011;49;48.530;9.200;2023-04-16T11:42:27;21.90;;;14.00;;
417;SDS011;49;48.530;9.200;2023-04-16T11:45:04;26.37;;;14.93;;
417;SDS011;49;48.530;9.200;2023-04-16T11:47:43;20.93;;;14.90;;
417;SDS011;49;48.530;9.200;2023-04-16T11:50:16;27.87;;;15.47;;
417;SDS011;49;48.530;9.200;2023-04-16T11:52:47;19.10;;;12.97;;
417;SDS011;49;48.530;9.200;2023-04-16T11:55:22;19.37;;;11.83;;
417;SDS011;49;48.530;9.200;2023-04-16T11:57:52;33.50;;;19.27;;
417;SDS011;49;48.530;9.200;2023-04-16T12:00:19;17.50;;;12.70;;
417;SDS011;49;48.530;9.200;2023-04-16T12:02:50;18.03;;;11.93;;
417;SDS011;49;48.530;9.200;2023-04-16T12:05:24;18.57;;;12.13;;
417;SDS011;49;48.530;9.200;2023-04-16T12:07:56;19.10;;;11.73;;
417;SDS011;49;48.530;9.200;2023-04-16T12:10:32;16.60;;;11.37;;
417;SDS011;49;48.530;9.200;2023-04-16T12:13:08;17.70;;;11.33;;
417;SDS011;49;48.530;9.200;2023-04-16T12:15:49;18.30;;;10.67;;
417;SDS011;49;48.530;9.200;2023-04-16T12:18:37;17.90;;;11.47;;
417;SDS011;49;48.530;9.200;2023-04-16T12:21:42;14.80;;;9.80;;
417;SDS011;49;48.530;9.200;2023-04-16T12:24:14;18.03;;;12.00;;
417;SDS011;49;48.530;9.200;2023-04-16T12:26:45;16.73;;;10.40;;
417;SDS011;49;48.530;9.200;2023-04-16T12:29:15;12.70;;;10.00;;
417;SDS011;49;48.530;9.200;2023-04-16T12:31:45;17.23;;;9.40;;
417;SDS011;49;48.530;9.200;2023-04-16T12:34:43;17.23;;;11.20;;
417;SDS011;49;48.530;9.200;2023-04-16T12:37:28;13.03;;;9.70;;
417;SDS011;49;48.530;9.200;2023-04-16T12:39:59;13.00;;;9.90;;
417;SDS011;49;48.530;9.200;2023-04-16T12:42:29;13.47;;;10.20;;
417;SDS011;49;48.530;9.200;2023-04-16T12:45:05;11.10;;;8.83;;
417;SDS011;49;48.530;9.200;2023-04-16T12:47:33;15.37;;;9.73;;
417;SDS011;49;48.530;9.200;2023-04-16T12:50:02;18.60;;;9.80;;
417;SDS011;49;48.530;9.200;2023-04-16T12:52:29;12.07;;;9.07;;
417;SDS011;49;48.530;9.200;2023-04-16T12:54:57;14.87;;;10.00;;
417;SDS011;49;48.530;9.200;2023-04-16T12:57:31;14.43;;;9.57;;
417;SDS011;49;48.530;9.200;2023-04-16T12:59:58;13.07;;;9.27;;
417;SDS011;49;48.530;9.200;2023-04-16T13:02:37;13.70;;;9.17;;
417;SDS011;49;48.530;9.200;2023-04-16T13:05:09;11.43;;;8.60;;
417;SDS011;49;48.530;9.200;2023-04-16T13:07:37;10.17;;;7.50;;
417;SDS011;49;48.530;9.200;2023-04-16T13:10:08;10.80;;;7.93;;
417;SDS011;49;48.530;9.200;2023-04-16T13:12:35;11.20;;;7.77;;
417;SDS011;49;48.530;9.200;2023-04-16T13:15:08;14.60;;;8.40;;
417;SDS011;49;48.530;9.200;2023-04-16T13:17:39;10.20;;;7.63;;
417;SDS011;49;48.530;9.200;2023-04-16T13:20:11;12.00;;;7.83;;
417;SDS011;49;48.530;9.200;2023-04-16T13:22:41;12.07;;;8.53;;
417;SDS011;49;48.530;9.200;2023-04-16T13:25:11;10.20;;;7.63;;
417;SDS011;49;48.530;9.200;2023-04-16T13:27:41;13.70;;;8.40;;
417;SDS011;49;48.530;9.200;2023-04-16T13:30:08;11.33;;;7.70;;
417;SDS011;49;48.530;9.200;2023-04-16T13:32:42;10.60;;;7.40;;
417;SDS011;49;48.530;9.200;2023-04-16T13:35:15;9.27;;;6.87;;
417;SDS011;49;48.530;9.200;2023-04-16T13:37:44;6.80;;;5.73;;
417;SDS011;49;48.530;9.200;2023-04-16T13:40:15;9.20;;;6.50;;
417;SDS011;49;48.530;9.200;2023-04-16T13:42:42;8.90;;;6.13;;
417;SDS011;49;48.530;9.200;2023-04-16T13:45:09;8.30;;;6.07;;
417;SDS011;49;48.530;9.200;2023-04-16T13:47:42;9.30;;;5.33;;
417;SDS011;49;48.530;9.200;2023-04-16T13:50:37;8.73;;;5.40;;
417;SDS011;49;48.530;9.200;2023-04-16T13:53:20;6.20;;;4.73;;
417;SDS011;49;48.530;9.200;2023-04-16T13:55:48;6.40;;;5.40;;
417;SDS011;49;48.530;9.200;2023-04-16T13:58:20;6.00;;;4.03;;
417;SDS011;49;48.530;9.200;2023-04-16T14:00:53;5.80;;;5.10;;
417;SDS011;49;48.530;9.200;2023-04-16T14:03:24;9.60;;;6.70;;
417;SDS011;49;48.530;9.200;2023-04-16T14:05:58;7.20;;;5.00;;
417;SDS011;49;48.530;9.200;2023-04-16T14:08:32;8.20;;;5.07;;
417;SDS011;49;48.530;9.200;2023-04-16T14:11:06;5.30;;;4.53;;
417;SDS011;49;48.530;9.200;2023-04-16T14:13:43;4.40;;;3.77;;
417;SDS011;49;48.530;9.200;2023-04-16T14:16:14;4.47;;;3.77;;
417;SDS011;49;48.530;9.200;2023-04-16T14:18:45;5.10;;;4.30;;
417;SDS011;49;48.530;9.200;2023-04-16T14:21:16;5.97;;;4.33;;
417;SDS011;49;48.530;9.200;2023-04-16T14:23:55;4.67;;;4.27;;
417;SDS011;49;48.530;9.200;2023-04-16T14:26:25;4.60;;;4.00;;
417;SDS011;49;48.530;9.200;2023-04-16T14:28:52;7.60;;;4.70;;
417;SDS011;49;48.530;9.200;2023-04-16T14:31:19;6.27;;;4.47;;
417;SDS011;49;48.530;9.200;2023-04-16T14:33:46;5.37;;;4.23;;
417;SDS011;49;48.530;9.200;2023-04-16T14:36:19;5.93;;;4.77;;
417;SDS011;49;48.530;9.200;2023-04-16T14:38:50;5.93;;;5.00;;
417;SDS011;49;48.530;9.200;2023-04-16T14:41:18;10.63;;;4.50;;
417;SDS011;49;48.530;9.200;2023-04-16T14:43:46;5.23;;;4.53;;
417;SDS011;49;48.530;9.200;2023-04-16T14:46:17;6.93;;;5.23;;
417;SDS011;49;48.530;9.200;2023-04-16T14:48:49;7.07;;;5.30;;
417;SDS011;49;48.530;9.200;2023-04-16T14:51:23;6.37;;;4.27;;
417;SDS011;49;48.530;9.200;2023-04-16T14:53:59;6.90;;;5.80;;
417;SDS011;49;48.530;9.200;2023-04-16T14:56:28;26.43;;;16.60;;
417;SDS011;49;48.530;9.200;2023-04-16T14:58:57;4.80;;;4.20;;
417;SDS011;49;48.530;9.200;2023-04-16T15:01:25;18.30;;;8.50;;
417;SDS011;49;48.530;9.200;2023-04-16T15:03:56;10.23;;;6.40;;
417;SDS011;49;48.530;9.200;2023-04-16T15:06:28;10.07;;;6.60;;
417;SDS011;49;48.530;9.200;2023-04-16T15:08:56;12.60;;;7.03;;
417;SDS011;49;48.530;9.200;2023-04-16T15:11:26;5.80;;;4.90;;
417;SDS011;49;48.530;9.200;2023-04-16T15:13:56;10.90;;;6.83;;
417;SDS011;49;48.530;9.200;2023-04-16T15:16:23;10.20;;;5.60;;
417;SDS011;49;48.530;9.200;2023-04-16T15:18:54;10.90;;;7.60;;
417;SDS011;49;48.530;9.200;2023-04-16T15:21:24;9.03;;;6.37;;
417;SDS011;49;48.530;9.200;2023-04-16T15:23:57;7.40;;;5.73;;
417;SDS011;49;48.530;9.200;2023-04-16T15:26:24;8.77;;;6.40;;
417;SDS011;49;48.530;9.200;2023-04-16T15:28:51;7.03;;;6.17;;
417;SDS011;49;48.530;9.200;2023-04-16T15:31:23;7.63;;;6.20;;
417;SDS011;49;48.530;9.200;2023-04-16T15:33:53;8.70;;;6.90;;
417;SDS011;49;48.530;9.200;2023-04-16T15:36:24;6.30;;;5.20;;
417;SDS011;49;48.530;9.200;2023-04-16T15:38:52;7.20;;;5.60;;
417;SDS011;49;48.530;9.200;2023-04-16T15:41:23;8.50;;;6.70;;
417;SDS011;49;48.530;9.200;2023-04-16T15:43:59;10.43;;;6.83;;
417;SDS011;49;48.530;9.200;2023-04-16T15:46:30;10.90;;;8.03;;
417;SDS011;49;48.530;9.200;2023-04-16T15:49:00;12.77;;;7.63;;
417;SDS011;49;48.530;9.200;2023-04-16T15:51:29;13.20;;;7.80;;
417;SDS011;49;48.530;9.200;2023-04-16T15:54:06;10.93;;;8.83;;
417;SDS011;49;48.530;9.200;2023-04-16T15:56:48;9.70;;;7.63;;
417;SDS011;49;48.530;9.200;2023-04-16T15:59:18;14.67;;;9.80;;
417;SDS011;49;48.530;9.200;2023-04-16T16:01:51;11.80;;;8.20;;
417;SDS011;49;48.530;9.200;2023-04-16T16:04:19;13.60;;;9.37;;
417;SDS011;49;48.530;9.200;2023-04-16T16:06:47;11.90;;;8.50;;
417;SDS011;49;48.530;9.200;2023-04-16T16:09:30;15.13;;;9.57;;
417;SDS011;49;48.530;9.200;2023-04-16T16:12:14;15.07;;;10.57;;
417;SDS011;49;48.530;9.200;2023-04-16T16:14:41;14.83;;;10.60;;
417;SDS011;49;48.530;9.200;2023-04-16T16:17:09;13.97;;;10.47;;
417;SDS011;49;48.530;9.200;2023-04-16T16:19:38;17.07;;;10.97;;
417;SDS011;49;48.530;9.200;2023-04-16T16:22:06;12.43;;;9.13;;
417;SDS011;49;48.530;9.200;2023-04-16T16:24:39;17.67;;;11.60;;
417;SDS011;49;48.530;9.200;2023-04-16T16:27:08;14.87;;;10.90;;
417;SDS011;49;48.530;9.200;2023-04-16T16:29:38;16.67;;;11.53;;